sensor_id;sensor_type;location;lat;lon;timestamp;noise_LAeq;noise_LA_min;noise_LA_max;noise_LA01;noise_LA95
76217;Laerm;65010;50.190;18.930;2023-03-03T00:02:07;36.21;34.74;56.29;;
76217;Laerm;65010;50.190;18.930;2023-03-03T00:05:13;36.12;34.85;42.43;;
76217;Laerm;65010;50.190;18.930;2023-03-03T00:08:23;36.58;35.17;38.59;;
76217;Laerm;65010;50.190;18.930;2023-03-03T00:11:30;36.79;35.12;44.29;;
76217;Laerm;65010;50.190;18.930;2023-03-03T00:14:36;36.31;34.95;41.64;;
76217;Laerm;65010;50.190;18.930;2023-03-03T00:17:46;36.29;35.01;41.72;;
76217;Laerm;65010;50.190;18.930;2023-03-03T00:20:54;36.44;35.08;38.10;;
76217;Laerm;65010;50.190;18.930;2023-03-03T00:24:36;36.44;35.11;37.79;;
76217;Laerm;65010;50.190;18.930;2023-03-03T00:27:42;36.43;35.01;37.93;;
76217;Laerm;65010;50.190;18.930;2023-03-03T00:30:56;36.44;35.05;37.82;;
76217;Laerm;65010;50.190;18.930;2023-03-03T00:34:25;36.89;35.10;41.27;;
76217;Laerm;65010;50.190;18.930;2023-03-03T00:37:34;36.58;35.21;37.99;;
76217;Laerm;65010;50.190;18.930;2023-03-03T00:40:45;37.07;35.38;44.29;;
76217;Laerm;65010;50.190;18.930;2023-03-03T00:43:53;36.97;35.43;43.05;;
76217;Laerm;65010;50.190;18.930;2023-03-03T00:47:23;36.93;35.23;38.76;;
76217;Laerm;65010;50.190;18.930;2023-03-03T00:50:42;37.31;35.61;38.95;;
76217;Laerm;65010;50.190;18.930;2023-03-03T00:53:49;37.29;35.65;38.91;;
76217;Laerm;65010;50.190;18.930;2023-03-03T00:56:59;37.31;35.86;38.74;;
76217;Laerm;65010;50.190;18.930;2023-03-03T01:00:07;37.27;35.73;42.33;;
76217;Laerm;65010;50.190;18.930;2023-03-03T01:03:17;35.45;33.85;38.60;;
76217;Laerm;65010;50.190;18.930;2023-03-03T01:06:23;35.19;33.98;36.29;;
76217;Laerm;65010;50.190;18.930;2023-03-03T01:09:30;37.00;34.78;43.50;;
76217;Laerm;65010;50.190;18.930;2023-03-03T01:12:39;37.47;35.38;55.91;;
76217;Laerm;65010;50.190;18.930;2023-03-03T01:15:46;35.47;34.21;40.81;;
76217;Laerm;65010;50.190;18.930;2023-03-03T01:18:53;35.82;33.92;43.19;;
76217;Laerm;65010;50.190;18.930;2023-03-03T01:22:00;36.31;34.74;38.05;;
76217;Laerm;65010;50.190;18.930;2023-03-03T01:25:08;36.63;35.32;38.23;;
76217;Laerm;65010;50.190;18.930;2023-03-03T01:28:18;36.55;35.21;38.01;;
76217;Laerm;65010;50.190;18.930;2023-03-03T01:31:24;36.70;35.46;38.13;;
76217;Laerm;65010;50.190;18.930;2023-03-03T01:34:30;37.26;35.52;47.76;;
76217;Laerm;65010;50.190;18.930;2023-03-03T01:37:36;37.86;35.92;39.62;;
76217;Laerm;65010;50.190;18.930;2023-03-03T01:44:37;37.39;35.53;39.12;;
76217;Laerm;65010;50.190;18.930;2023-03-03T01:47:54;37.87;36.09;39.89;;
76217;Laerm;65010;50.190;18.930;2023-03-03T01:54:47;37.81;36.20;39.69;;
76217;Laerm;65010;50.190;18.930;2023-03-03T01:58:03;37.88;36.11;58.99;;
76217;Laerm;65010;50.190;18.930;2023-03-03T02:01:21;37.56;35.85;39.45;;
76217;Laerm;65010;50.190;18.930;2023-03-03T02:04:28;37.70;35.81;43.63;;
76217;Laerm;65010;50.190;18.930;2023-03-03T02:07:37;35.37;33.89;38.45;;
76217;Laerm;65010;50.190;18.930;2023-03-03T02:10:45;37.95;33.86;41.35;;
76217;Laerm;65010;50.190;18.930;2023-03-03T02:13:53;39.19;37.23;41.15;;
76217;Laerm;65010;50.190;18.930;2023-03-03T02:17:02;40.14;37.69;45.43;;
76217;Laerm;65010;50.190;18.930;2023-03-03T02:20:19;44.77;37.63;64.61;;
76217;Laerm;65010;50.190;18.930;2023-03-03T02:23:41;39.57;37.46;45.85;;
76217;Laerm;65010;50.190;18.930;2023-03-03T02:26:52;39.90;38.19;41.99;;
76217;Laerm;65010;50.190;18.930;2023-03-03T02:30:10;37.99;35.53;58.79;;
76217;Laerm;65010;50.190;18.930;2023-03-03T02:33:17;42.42;37.98;58.81;;
76217;Laerm;65010;50.190;18.930;2023-03-03T02:36:27;40.22;38.47;53.02;;
76217;Laerm;65010;50.190;18.930;2023-03-03T02:39:34;40.04;38.05;43.67;;
76217;Laerm;65010;50.190;18.930;2023-03-03T02:42:45;44.66;38.13;63.26;;
76217;Laerm;65010;50.190;18.930;2023-03-03T02:45:55;39.04;35.23;44.25;;
76217;Laerm;65010;50.190;18.930;2023-03-03T02:49:01;36.26;34.92;37.90;;
76217;Laerm;65010;50.190;18.930;2023-03-03T02:52:10;36.45;35.07;40.74;;
76217;Laerm;65010;50.190;18.930;2023-03-03T02:55:22;43.10;35.03;59.17;;
76217;Laerm;65010;50.190;18.930;2023-03-03T02:58:31;36.65;34.97;47.53;;
76217;Laerm;65010;50.190;18.930;2023-03-03T03:01:38;41.80;34.93;60.97;;
76217;Laerm;65010;50.190;18.930;2023-03-03T03:04:49;36.35;35.19;37.88;;
76217;Laerm;65010;50.190;18.930;2023-03-03T03:07:58;36.28;34.96;37.48;;
76217;Laerm;65010;50.190;18.930;2023-03-03T03:11:07;36.45;35.00;38.04;;
76217;Laerm;65010;50.190;18.930;2023-03-03T03:14:16;36.54;35.27;39.80;;
76217;Laerm;65010;50.190;18.930;2023-03-03T03:17:23;37.48;35.24;66.31;;
76217;Laerm;65010;50.190;18.930;2023-03-03T03:20:29;36.62;35.07;37.94;;
76217;Laerm;65010;50.190;18.930;2023-03-03T03:23:37;36.68;34.93;38.22;;
76217;Laerm;65010;50.190;18.930;2023-03-03T03:30:39;37.66;35.17;51.74;;
76217;Laerm;65010;50.190;18.930;2023-03-03T03:33:47;36.96;35.04;38.47;;
76217;Laerm;65010;50.190;18.930;2023-03-03T03:36:56;37.24;35.49;40.74;;
76217;Laerm;65010;50.190;18.930;2023-03-03T03:40:05;37.26;35.68;38.89;;
76217;Laerm;65010;50.190;18.930;2023-03-03T03:43:11;37.32;35.51;38.85;;
76217;Laerm;65010;50.190;18.930;2023-03-03T03:46:21;37.42;35.68;51.33;;
76217;Laerm;65010;50.190;18.930;2023-03-03T03:49:29;37.60;35.83;43.04;;
76217;Laerm;65010;50.190;18.930;2023-03-03T03:52:42;37.83;36.25;40.72;;
76217;Laerm;65010;50.190;18.930;2023-03-03T03:55:51;37.64;36.03;40.62;;
76217;Laerm;65010;50.190;18.930;2023-03-03T03:58:59;37.52;35.77;39.14;;
76217;Laerm;65010;50.190;18.930;2023-03-03T04:02:08;37.51;35.78;38.97;;
76217;Laerm;65010;50.190;18.930;2023-03-03T04:05:21;43.69;35.65;64.11;;
76217;Laerm;65010;50.190;18.930;2023-03-03T04:08:44;37.53;35.93;40.44;;
76217;Laerm;65010;50.190;18.930;2023-03-03T04:11:52;40.38;36.44;56.28;;
76217;Laerm;65010;50.190;18.930;2023-03-03T04:14:58;37.77;35.67;57.14;;
76217;Laerm;65010;50.190;18.930;2023-03-03T04:18:08;37.62;35.75;41.73;;
76217;Laerm;65010;50.190;18.930;2023-03-03T04:29:02;37.49;35.61;40.51;;
76217;Laerm;65010;50.190;18.930;2023-03-03T04:32:09;43.35;35.85;68.42;;
76217;Laerm;65010;50.190;18.930;2023-03-03T04:42:49;46.82;36.16;65.70;;
76217;Laerm;65010;50.190;18.930;2023-03-03T04:53:27;43.15;36.09;64.41;;
76217;Laerm;65010;50.190;18.930;2023-03-03T05:04:09;46.41;35.46;65.50;;
76217;Laerm;65010;50.190;18.930;2023-03-03T05:07:15;43.28;35.58;63.29;;
76217;Laerm;65010;50.190;18.930;2023-03-03T05:18:08;44.58;38.64;63.16;;
76217;Laerm;65010;50.190;18.930;2023-03-03T05:21:17;44.15;38.78;61.24;;
76217;Laerm;65010;50.190;18.930;2023-03-03T05:24:24;44.68;38.33;62.53;;
76217;Laerm;65010;50.190;18.930;2023-03-03T07:22:58;53.33;38.99;72.47;;
76217;Laerm;65010;50.190;18.930;2023-03-03T08:04:28;46.80;38.45;64.50;;
76217;Laerm;65010;50.190;18.930;2023-03-03T09:46:44;47.34;35.48;63.76;;
76217;Laerm;65010;50.190;18.930;2023-03-03T10:13:47;46.06;38.00;65.35;;
76217;Laerm;65010;50.190;18.930;2023-03-03T10:17:25;48.98;38.22;64.08;;
76217;Laerm;65010;50.190;18.930;2023-03-03T10:20:51;48.80;38.46;64.89;;
76217;Laerm;65010;50.190;18.930;2023-03-03T10:24:22;46.79;38.15;64.11;;
76217;Laerm;65010;50.190;18.930;2023-03-03T10:28:04;46.01;38.01;65.32;;
76217;Laerm;65010;50.190;18.930;2023-03-03T10:31:33;48.83;38.14;66.36;;
76217;Laerm;65010;50.190;18.930;2023-03-03T10:35:04;48.68;38.93;63.24;;
76217;Laerm;65010;50.190;18.930;2023-03-03T10:38:39;47.52;38.92;62.22;;
76217;Laerm;65010;50.190;18.930;2023-03-03T10:42:09;47.08;39.01;64.45;;
76217;Laerm;65010;50.190;18.930;2023-03-03T10:45:55;45.58;39.07;67.42;;
76217;Laerm;65010;50.190;18.930;2023-03-03T10:49:27;50.50;39.37;64.65;;
76217;Laerm;65010;50.190;18.930;2023-03-03T10:52:55;48.35;39.19;67.38;;
76217;Laerm;65010;50.190;18.930;2023-03-03T10:56:28;48.62;39.19;66.17;;
76217;Laerm;65010;50.190;18.930;2023-03-03T11:00:21;45.12;38.80;62.30;;
76217;Laerm;65010;50.190;18.930;2023-03-03T11:04:05;48.58;39.20;67.86;;
76217;Laerm;65010;50.190;18.930;2023-03-03T11:07:25;49.76;39.23;66.68;;
76217;Laerm;65010;50.190;18.930;2023-03-03T11:10:59;48.71;39.41;69.28;;
76217;Laerm;65010;50.190;18.930;2023-03-03T11:14:22;48.83;39.52;62.62;;
76217;Laerm;65010;50.190;18.930;2023-03-03T11:17:58;49.11;39.41;62.59;;
76217;Laerm;65010;50.190;18.930;2023-03-03T11:21:19;46.28;39.15;63.78;;
76217;Laerm;65010;50.190;18.930;2023-03-03T11:24:52;41.28;39.26;43.45;;
76217;Laerm;65010;50.190;18.930;2023-03-03T11:28:29;49.95;39.41;64.94;;
76217;Laerm;65010;50.190;18.930;2023-03-03T11:31:46;47.83;38.82;61.95;;
76217;Laerm;65010;50.190;18.930;2023-03-03T11:35:16;49.57;39.19;64.57;;
76217;Laerm;65010;50.190;18.930;2023-03-03T11:38:47;50.04;39.66;62.50;;
76217;Laerm;65010;50.190;18.930;2023-03-03T11:42:10;46.57;39.36;65.04;;
76217;Laerm;65010;50.190;18.930;2023-03-03T11:45:38;45.37;38.94;64.14;;
76217;Laerm;65010;50.190;18.930;2023-03-03T11:48:58;48.56;39.08;73.85;;
76217;Laerm;65010;50.190;18.930;2023-03-03T11:52:26;48.85;39.42;62.69;;
76217;Laerm;65010;50.190;18.930;2023-03-03T11:55:41;46.96;38.87;65.77;;
76217;Laerm;65010;50.190;18.930;2023-03-03T11:59:06;44.89;39.34;63.71;;
76217;Laerm;65010;50.190;18.930;2023-03-03T12:06:23;45.77;39.57;63.39;;
76217;Laerm;65010;50.190;18.930;2023-03-03T12:09:54;43.97;39.43;59.31;;
76217;Laerm;65010;50.190;18.930;2023-03-03T12:13:11;48.08;39.87;64.91;;
76217;Laerm;65010;50.190;18.930;2023-03-03T12:16:42;49.62;39.60;63.93;;
76217;Laerm;65010;50.190;18.930;2023-03-03T12:20:12;42.21;36.94;56.54;;
76217;Laerm;65010;50.190;18.930;2023-03-03T12:23:49;44.20;37.43;61.95;;
76217;Laerm;65010;50.190;18.930;2023-03-03T12:27:15;47.35;38.58;67.51;;
76217;Laerm;65010;50.190;18.930;2023-03-03T12:30:54;48.21;39.67;64.13;;
76217;Laerm;65010;50.190;18.930;2023-03-03T12:34:15;50.12;39.55;65.19;;
76217;Laerm;65010;50.190;18.930;2023-03-03T12:37:47;44.82;38.03;62.65;;
76217;Laerm;65010;50.190;18.930;2023-03-03T12:41:09;43.46;38.14;60.88;;
76217;Laerm;65010;50.190;18.930;2023-03-03T12:44:30;45.58;38.65;62.27;;
76217;Laerm;65010;50.190;18.930;2023-03-03T12:47:49;48.48;38.60;65.13;;
76217;Laerm;65010;50.190;18.930;2023-03-03T12:51:09;44.60;38.42;58.76;;
76217;Laerm;65010;50.190;18.930;2023-03-03T12:54:49;47.76;38.70;66.70;;
76217;Laerm;65010;50.190;18.930;2023-03-03T12:58:12;49.32;38.52;63.79;;
76217;Laerm;65010;50.190;18.930;2023-03-03T13:01:46;49.64;38.64;67.76;;
76217;Laerm;65010;50.190;18.930;2023-03-03T13:05:09;42.56;38.34;56.22;;
76217;Laerm;65010;50.190;18.930;2023-03-03T13:08:48;47.95;38.30;66.40;;
76217;Laerm;65010;50.190;18.930;2023-03-03T13:12:26;49.94;38.34;68.91;;
76217;Laerm;65010;50.190;18.930;2023-03-03T13:15:42;45.93;38.33;62.69;;
76217;Laerm;65010;50.190;18.930;2023-03-03T13:19:07;46.88;38.64;65.23;;
76217;Laerm;65010;50.190;18.930;2023-03-03T13:22:31;50.56;38.66;64.47;;
76217;Laerm;65010;50.190;18.930;2023-03-03T13:25:50;47.07;38.54;62.40;;
76217;Laerm;65010;50.190;18.930;2023-03-03T13:29:12;49.74;38.94;67.13;;
76217;Laerm;65010;50.190;18.930;2023-03-03T13:32:34;50.77;38.96;66.33;;
76217;Laerm;65010;50.190;18.930;2023-03-03T13:35:54;47.59;38.85;63.21;;
76217;Laerm;65010;50.190;18.930;2023-03-03T13:39:17;48.81;38.68;65.77;;
76217;Laerm;65010;50.190;18.930;2023-03-03T13:42:37;46.84;38.86;61.23;;
76217;Laerm;65010;50.190;18.930;2023-03-03T13:46:05;46.13;39.00;64.02;;
76217;Laerm;65010;50.190;18.930;2023-03-03T13:49:46;46.81;38.72;66.73;;
76217;Laerm;65010;50.190;18.930;2023-03-03T13:53:29;45.78;38.39;62.05;;
76217;Laerm;65010;50.190;18.930;2023-03-03T13:57:08;49.25;38.85;64.49;;
76217;Laerm;65010;50.190;18.930;2023-03-03T14:00:46;48.30;38.33;62.13;;
76217;Laerm;65010;50.190;18.930;2023-03-03T14:04:13;48.21;38.81;63.19;;
76217;Laerm;65010;50.190;18.930;2023-03-03T14:07:35;49.17;38.63;65.20;;
76217;Laerm;65010;50.190;18.930;2023-03-03T14:11:01;51.04;38.89;67.16;;
76217;Laerm;65010;50.190;18.930;2023-03-03T14:14:46;49.52;38.50;63.74;;
76217;Laerm;65010;50.190;18.930;2023-03-03T14:18:20;47.75;38.89;65.96;;
76217;Laerm;65010;50.190;18.930;2023-03-03T14:21:40;49.93;38.68;64.93;;
76217;Laerm;65010;50.190;18.930;2023-03-03T14:25:02;48.70;38.22;62.29;;
76217;Laerm;65010;50.190;18.930;2023-03-03T14:28:20;48.53;38.19;65.69;;
76217;Laerm;65010;50.190;18.930;2023-03-03T14:31:38;49.37;38.53;66.68;;
76217;Laerm;65010;50.190;18.930;2023-03-03T14:35:00;48.89;38.55;64.48;;
76217;Laerm;65010;50.190;18.930;2023-03-03T14:38:35;49.46;39.02;77.00;;
76217;Laerm;65010;50.190;18.930;2023-03-03T14:41:43;49.81;36.29;68.04;;
76217;Laerm;65010;50.190;18.930;2023-03-03T14:44:55;49.33;35.84;64.59;;
76217;Laerm;65010;50.190;18.930;2023-03-03T14:48:17;44.66;35.62;66.46;;
76217;Laerm;65010;50.190;18.930;2023-03-03T14:51:26;51.51;37.88;67.06;;
76217;Laerm;65010;50.190;18.930;2023-03-03T14:54:42;50.89;38.33;76.22;;
76217;Laerm;65010;50.190;18.930;2023-03-03T14:57:54;46.63;35.31;64.43;;
76217;Laerm;65010;50.190;18.930;2023-03-03T15:01:12;48.48;35.94;64.96;;
76217;Laerm;65010;50.190;18.930;2023-03-03T15:04:27;49.34;36.40;64.56;;
76217;Laerm;65010;50.190;18.930;2023-03-03T15:07:37;49.35;38.91;63.41;;
76217;Laerm;65010;50.190;18.930;2023-03-03T15:10:47;48.79;38.67;65.34;;
76217;Laerm;65010;50.190;18.930;2023-03-03T15:14:11;48.12;38.85;63.87;;
76217;Laerm;65010;50.190;18.930;2023-03-03T15:17:27;48.64;38.21;66.10;;
76217;Laerm;65010;50.190;18.930;2023-03-03T15:20:44;47.91;38.50;65.71;;
76217;Laerm;65010;50.190;18.930;2023-03-03T15:24:29;49.34;38.52;68.35;;
76217;Laerm;65010;50.190;18.930;2023-03-03T15:27:48;46.29;38.71;66.50;;
76217;Laerm;65010;50.190;18.930;2023-03-03T15:31:11;44.68;38.57;60.63;;
76217;Laerm;65010;50.190;18.930;2023-03-03T15:34:39;47.69;38.72;64.58;;
76217;Laerm;65010;50.190;18.930;2023-03-03T15:38:13;48.40;38.73;71.64;;
76217;Laerm;65010;50.190;18.930;2023-03-03T15:41:42;49.66;38.83;68.19;;
76217;Laerm;65010;50.190;18.930;2023-03-03T15:45:05;44.51;38.55;61.70;;
76217;Laerm;65010;50.190;18.930;2023-03-03T15:48:42;49.32;38.60;64.38;;
76217;Laerm;65010;50.190;18.930;2023-03-03T15:52:17;49.58;38.53;71.05;;
76217;Laerm;65010;50.190;18.930;2023-03-03T15:55:57;49.09;38.56;65.54;;
76217;Laerm;65010;50.190;18.930;2023-03-03T15:59:56;44.63;38.50;59.92;;
76217;Laerm;65010;50.190;18.930;2023-03-03T16:03:28;46.95;38.36;62.67;;
76217;Laerm;65010;50.190;18.930;2023-03-03T16:07:01;47.07;38.53;63.13;;
76217;Laerm;65010;50.190;18.930;2023-03-03T16:10:30;45.39;38.38;60.43;;
76217;Laerm;65010;50.190;18.930;2023-03-03T16:13:54;47.78;38.57;62.16;;
76217;Laerm;65010;50.190;18.930;2023-03-03T16:17:34;50.09;36.73;67.25;;
76217;Laerm;65010;50.190;18.930;2023-03-03T16:21:05;45.35;38.01;61.97;;
76217;Laerm;65010;50.190;18.930;2023-03-03T16:24:37;46.49;38.92;63.34;;
76217;Laerm;65010;50.190;18.930;2023-03-03T16:31:37;47.65;38.38;70.17;;
76217;Laerm;65010;50.190;18.930;2023-03-03T16:34:55;46.23;38.19;65.87;;
76217;Laerm;65010;50.190;18.930;2023-03-03T16:38:10;43.47;38.17;63.22;;
76217;Laerm;65010;50.190;18.930;2023-03-03T16:41:38;46.11;38.04;63.07;;
76217;Laerm;65010;50.190;18.930;2023-03-03T16:45:09;46.24;38.16;61.42;;
76217;Laerm;65010;50.190;18.930;2023-03-03T16:48:34;48.30;37.89;63.05;;
76217;Laerm;65010;50.190;18.930;2023-03-03T16:51:55;47.82;38.26;64.39;;
76217;Laerm;65010;50.190;18.930;2023-03-03T16:55:14;46.46;38.25;63.76;;
76217;Laerm;65010;50.190;18.930;2023-03-03T16:58:40;48.50;38.31;65.75;;
76217;Laerm;65010;50.190;18.930;2023-03-03T17:02:14;45.76;36.01;65.59;;
76217;Laerm;65010;50.190;18.930;2023-03-03T17:05:41;44.98;35.85;60.50;;
76217;Laerm;65010;50.190;18.930;2023-03-03T17:09:25;44.99;38.16;64.58;;
76217;Laerm;65010;50.190;18.930;2023-03-03T17:12:57;44.24;37.99;61.91;;
76217;Laerm;65010;50.190;18.930;2023-03-03T17:16:18;48.51;38.41;69.58;;
76217;Laerm;65010;50.190;18.930;2023-03-03T17:19:46;48.39;38.16;68.38;;
76217;Laerm;65010;50.190;18.930;2023-03-03T17:23:28;44.49;37.93;62.98;;
76217;Laerm;65010;50.190;18.930;2023-03-03T17:27:09;47.63;37.86;71.73;;
76217;Laerm;65010;50.190;18.930;2023-03-03T17:30:24;48.13;38.10;70.89;;
76217;Laerm;65010;50.190;18.930;2023-03-03T17:37:37;45.61;38.02;64.07;;
76217;Laerm;65010;50.190;18.930;2023-03-03T17:41:02;44.39;38.02;61.39;;
76217;Laerm;65010;50.190;18.930;2023-03-03T17:44:26;47.05;38.04;65.94;;
76217;Laerm;65010;50.190;18.930;2023-03-03T17:47:57;45.98;38.27;67.23;;
76217;Laerm;65010;50.190;18.930;2023-03-03T17:51:33;49.21;38.35;65.60;;
76217;Laerm;65010;50.190;18.930;2023-03-03T17:55:43;47.08;38.61;61.66;;
76217;Laerm;65010;50.190;18.930;2023-03-03T17:59:34;46.20;38.54;62.67;;
76217;Laerm;65010;50.190;18.930;2023-03-03T18:03:20;42.13;38.65;54.15;;
76217;Laerm;65010;50.190;18.930;2023-03-03T18:07:10;44.51;38.75;60.98;;
76217;Laerm;65010;50.190;18.930;2023-03-03T18:10:52;45.45;38.53;61.67;;
76217;Laerm;65010;50.190;18.930;2023-03-03T18:14:38;44.86;38.40;64.25;;
76217;Laerm;65010;50.190;18.930;2023-03-03T18:18:04;42.33;38.35;59.76;;
76217;Laerm;65010;50.190;18.930;2023-03-03T18:21:20;47.04;38.39;67.51;;
76217;Laerm;65010;50.190;18.930;2023-03-03T18:24:35;42.99;38.28;56.62;;
76217;Laerm;65010;50.190;18.930;2023-03-03T18:27:44;46.88;38.36;62.74;;
76217;Laerm;65010;50.190;18.930;2023-03-03T18:30:59;42.91;38.76;60.10;;
76217;Laerm;65010;50.190;18.930;2023-03-03T18:34:32;43.88;38.47;63.03;;
76217;Laerm;65010;50.190;18.930;2023-03-03T18:37:48;44.35;38.31;63.79;;
76217;Laerm;65010;50.190;18.930;2023-03-03T18:40:58;45.70;38.59;63.72;;
76217;Laerm;65010;50.190;18.930;2023-03-03T18:44:28;46.61;38.75;63.15;;
76217;Laerm;65010;50.190;18.930;2023-03-03T18:48:02;47.17;38.45;63.69;;
76217;Laerm;65010;50.190;18.930;2023-03-03T18:51:09;45.59;38.26;62.63;;
76217;Laerm;65010;50.190;18.930;2023-03-03T18:54:30;43.67;38.57;56.77;;
76217;Laerm;65010;50.190;18.930;2023-03-03T18:57:39;45.55;38.71;63.33;;
76217;Laerm;65010;50.190;18.930;2023-03-03T19:00:53;45.05;38.14;60.53;;
76217;Laerm;65010;50.190;18.930;2023-03-03T19:07:50;49.86;38.27;70.69;;
76217;Laerm;65010;50.190;18.930;2023-03-03T19:10:59;43.08;38.63;63.29;;
76217;Laerm;65010;50.190;18.930;2023-03-03T19:14:19;47.25;38.40;61.98;;
76217;Laerm;65010;50.190;18.930;2023-03-03T19:17:48;47.75;38.39;69.33;;
76217;Laerm;65010;50.190;18.930;2023-03-03T19:21:00;44.78;38.66;64.14;;
76217;Laerm;65010;50.190;18.930;2023-03-03T19:24:31;46.05;38.44;60.94;;
76217;Laerm;65010;50.190;18.930;2023-03-03T19:27:49;43.09;38.39;58.57;;
76217;Laerm;65010;50.190;18.930;2023-03-03T19:31:07;46.10;38.26;61.24;;
76217;Laerm;65010;50.190;18.930;2023-03-03T19:34:28;44.80;38.15;62.54;;
76217;Laerm;65010;50.190;18.930;2023-03-03T19:37:58;41.34;35.11;59.04;;
76217;Laerm;65010;50.190;18.930;2023-03-03T19:41:41;40.90;36.04;57.83;;
76217;Laerm;65010;50.190;18.930;2023-03-03T19:45:08;48.59;38.35;68.21;;
76217;Laerm;65010;50.190;18.930;2023-03-03T19:48:33;42.79;38.58;55.18;;
76217;Laerm;65010;50.190;18.930;2023-03-03T19:51:54;43.74;37.96;60.82;;
76217;Laerm;65010;50.190;18.930;2023-03-03T19:55:33;44.89;38.12;62.51;;
76217;Laerm;65010;50.190;18.930;2023-03-03T19:59:06;44.85;38.24;62.26;;
76217;Laerm;65010;50.190;18.930;2023-03-03T20:02:42;45.18;38.38;62.74;;
76217;Laerm;65010;50.190;18.930;2023-03-03T20:06:11;43.90;38.57;62.97;;
76217;Laerm;65010;50.190;18.930;2023-03-03T20:09:37;46.30;38.50;61.69;;
76217;Laerm;65010;50.190;18.930;2023-03-03T20:13:03;43.99;38.51;64.30;;
76217;Laerm;65010;50.190;18.930;2023-03-03T20:16:28;40.42;38.47;44.52;;
76217;Laerm;65010;50.190;18.930;2023-03-03T20:19:51;41.40;38.62;54.03;;
76217;Laerm;65010;50.190;18.930;2023-03-03T20:23:18;40.82;38.15;61.02;;
76217;Laerm;65010;50.190;18.930;2023-03-03T20:26:37;45.00;38.36;62.77;;
76217;Laerm;65010;50.190;18.930;2023-03-03T20:30:07;42.51;38.59;60.29;;
76217;Laerm;65010;50.190;18.930;2023-03-03T20:33:43;42.56;38.72;58.60;;
76217;Laerm;65010;50.190;18.930;2023-03-03T20:37:05;42.93;38.88;59.87;;
76217;Laerm;65010;50.190;18.930;2023-03-03T20:40:28;40.72;38.70;43.10;;
76217;Laerm;65010;50.190;18.930;2023-03-03T20:43:58;42.68;38.59;57.88;;
76217;Laerm;65010;50.190;18.930;2023-03-03T20:47:24;42.98;38.75;59.76;;
76217;Laerm;65010;50.190;18.930;2023-03-03T20:50:54;42.82;38.07;59.94;;
76217;Laerm;65010;50.190;18.930;2023-03-03T20:54:19;42.02;38.08;56.12;;
76217;Laerm;65010;50.190;18.930;2023-03-03T20:57:45;43.45;38.46;63.30;;
76217;Laerm;65010;50.190;18.930;2023-03-03T21:01:05;45.06;38.25;63.94;;
76217;Laerm;65010;50.190;18.930;2023-03-03T21:04:23;42.86;38.53;59.61;;
76217;Laerm;65010;50.190;18.930;2023-03-03T21:07:33;42.27;38.10;57.53;;
76217;Laerm;65010;50.190;18.930;2023-03-03T21:10:55;42.84;37.97;60.49;;
76217;Laerm;65010;50.190;18.930;2023-03-03T21:14:18;40.15;37.87;42.35;;
76217;Laerm;65010;50.190;18.930;2023-03-03T21:17:27;46.81;38.90;63.23;;
76217;Laerm;65010;50.190;18.930;2023-03-03T21:20:35;45.25;38.55;62.87;;
76217;Laerm;65010;50.190;18.930;2023-03-03T21:23:44;40.66;38.84;42.70;;
76217;Laerm;65010;50.190;18.930;2023-03-03T21:26:54;40.76;38.54;42.99;;
76217;Laerm;65010;50.190;18.930;2023-03-03T21:30:12;45.54;39.08;66.40;;
76217;Laerm;65010;50.190;18.930;2023-03-03T21:33:45;41.42;38.84;52.61;;
76217;Laerm;65010;50.190;18.930;2023-03-03T21:36:54;45.47;36.01;62.37;;
76217;Laerm;65010;50.190;18.930;2023-03-03T21:40:17;44.23;36.28;65.32;;
76217;Laerm;65010;50.190;18.930;2023-03-03T21:43:33;39.04;36.52;45.73;;
76217;Laerm;65010;50.190;18.930;2023-03-03T21:46:40;41.67;38.70;51.83;;
76217;Laerm;65010;50.190;18.930;2023-03-03T21:49:49;43.69;38.17;61.00;;
76217;Laerm;65010;50.190;18.930;2023-03-03T21:52:57;43.13;38.23;61.45;;
76217;Laerm;65010;50.190;18.930;2023-03-03T21:56:07;39.88;37.89;41.81;;
76217;Laerm;65010;50.190;18.930;2023-03-03T21:59:16;43.53;38.05;61.29;;
76217;Laerm;65010;50.190;18.930;2023-03-03T22:02:21;43.36;37.65;59.40;;
76217;Laerm;65010;50.190;18.930;2023-03-03T22:05:28;41.95;37.87;60.37;;
76217;Laerm;65010;50.190;18.930;2023-03-03T22:08:34;39.62;37.73;41.36;;
76217;Laerm;65010;50.190;18.930;2023-03-03T22:11:43;39.64;37.92;42.26;;
76217;Laerm;65010;50.190;18.930;2023-03-03T22:14:49;39.67;37.49;42.94;;
76217;Laerm;65010;50.190;18.930;2023-03-03T22:17:56;39.85;38.09;41.71;;
76217;Laerm;65010;50.190;18.930;2023-03-03T22:21:02;45.81;38.00;65.91;;
76217;Laerm;65010;50.190;18.930;2023-03-03T22:24:09;39.64;37.85;41.48;;
76217;Laerm;65010;50.190;18.930;2023-03-03T22:27:17;39.71;37.89;44.10;;
76217;Laerm;65010;50.190;18.930;2023-03-03T22:30:24;39.83;37.81;43.57;;
76217;Laerm;65010;50.190;18.930;2023-03-03T22:33:30;42.15;37.78;59.36;;
76217;Laerm;65010;50.190;18.930;2023-03-03T22:36:37;39.94;38.23;41.49;;
76217;Laerm;65010;50.190;18.930;2023-03-03T22:39:42;47.43;38.11;64.96;;
76217;Laerm;65010;50.190;18.930;2023-03-03T22:42:52;40.00;38.26;41.68;;
76217;Laerm;65010;50.190;18.930;2023-03-03T22:45:58;39.28;35.61;54.65;;
76217;Laerm;65010;50.190;18.930;2023-03-03T22:49:05;42.59;35.77;64.55;;
76217;Laerm;65010;50.190;18.930;2023-03-03T22:52:10;39.04;36.51;47.57;;
76217;Laerm;65010;50.190;18.930;2023-03-03T22:55:17;40.90;38.30;53.57;;
76217;Laerm;65010;50.190;18.930;2023-03-03T22:58:26;41.75;38.21;56.53;;
76217;Laerm;65010;50.190;18.930;2023-03-03T23:01:33;39.70;37.89;42.19;;
76217;Laerm;65010;50.190;18.930;2023-03-03T23:04:39;40.29;37.73;53.87;;
76217;Laerm;65010;50.190;18.930;2023-03-03T23:07:45;39.76;37.56;42.21;;
76217;Laerm;65010;50.190;18.930;2023-03-03T23:10:53;39.74;37.98;43.15;;
76217;Laerm;65010;50.190;18.930;2023-03-03T23:14:02;39.69;37.66;41.60;;
76217;Laerm;65010;50.190;18.930;2023-03-03T23:17:08;42.78;37.86;59.61;;
76217;Laerm;65010;50.190;18.930;2023-03-03T23:20:19;39.65;38.03;41.85;;
76217;Laerm;65010;50.190;18.930;2023-03-03T23:23:25;39.82;37.96;44.97;;
76217;Laerm;65010;50.190;18.930;2023-03-03T23:26:33;39.93;38.26;42.08;;
76217;Laerm;65010;50.190;18.930;2023-03-03T23:29:43;39.99;37.92;43.21;;
76217;Laerm;65010;50.190;18.930;2023-03-03T23:32:50;39.83;37.58;43.87;;
76217;Laerm;65010;50.190;18.930;2023-03-03T23:35:56;39.01;36.77;44.92;;
76217;Laerm;65010;50.190;18.930;2023-03-03T23:39:03;38.51;36.60;42.31;;
76217;Laerm;65010;50.190;18.930;2023-03-03T23:42:09;40.06;38.09;42.07;;
76217;Laerm;65010;50.190;18.930;2023-03-03T23:45:18;40.06;37.84;42.11;;
76217;Laerm;65010;50.190;18.930;2023-03-03T23:48:24;39.59;35.65;54.11;;
76217;Laerm;65010;50.190;18.930;2023-03-03T23:51:32;37.85;35.62;56.14;;
76217;Laerm;65010;50.190;18.930;2023-03-03T23:54:38;39.83;37.44;50.23;;
76217;Laerm;65010;50.190;18.930;2023-03-03T23:57:44;44.14;38.30;62.93;;
